VVDN/DAD METAR and TAF weather

Enter ICAO airport designator
Station Type Date Time Source
VVDN METAR 2020/07/15 01:00 UTC NOAA

VVDN 150100Z 17004KT 130V210 9999 FEW017 30/23 Q1007 NOSIG


Station Type Date Time Source
VVDN Decoded METAR 2020/07/15 01:00 UTC NOAA

Da Nang, Vietnam (VVDN) 16-02N 108-11E 7M
Jul 14, 2020 - 09:00 PM EDT / 2020.07.15 0100 UTC
Wind: from the S (170 degrees) at 5 MPH (4 KT) (direction variable):0
Visibility: greater than 7 mile(s):0
Sky conditions: mostly clear
Temperature: 86 F (30 C)
Heat index: 93.4 F (34.1 C):1
Dew Point: 73 F (23 C)
Relative Humidity: 66%
Pressure (altimeter): 29.74 in. Hg (1007 hPa)
ob: VVDN 150100Z 17004KT 130V210 9999 FEW017 30/23 Q1007 NOSIG
cycle: 1

Station Type Date Time Source
VVDN TAF 2020/07/14 18:36 UTC NOAA

TAF VVDN 141700Z 1418/1518 24004KT 9999 FEW015
BECMG 1503/1504 10010KT
TEMPO 1508/1512 TS FEW015 FEW017CB SCT060
BECMG 1512/1513 24005KT

Example: see airport list